KWRL/WRL METAR and TAF weather

Enter ICAO airport designator
Station Type Date Time Source
KWRL METAR 2022/06/30 13:53 UTC NOAA

KWRL 301353Z AUTO 27006KT 10SM CLR 18/03 A3013 RMK AO2 SLP160 T01830033


Station Type Date Time Source
KWRL Decoded METAR 2022/06/30 13:53 UTC NOAA

WORLAND MUNICIPAL AIRPORT, WY, United States (KWRL) 43-58N 107-57W 1271M
Jun 30, 2022 - 09:53 AM EDT / 2022.06.30 1353 UTC
Wind: from the W (270 degrees) at 7 MPH (6 KT):0
Visibility: 10 mile(s):0
Sky conditions: clear
Temperature: 64.9 F (18.3 C)
Dew Point: 37.9 F (3.3 C)
Relative Humidity: 36%
Pressure (altimeter): 30.13 in. Hg (1020 hPa)
ob: KWRL 301353Z AUTO 27006KT 10SM CLR 18/03 A3013 RMK AO2 SLP160 T01830033
cycle: 14

Station Type Date Time Source
KWRL TAF 2022/06/30 12:34 UTC NOAA

TAF KWRL 301131Z 3012/0112 23007KT P6SM SKC
FM301500 33007KT P6SM FEW120
FM010000 36010KT P6SM FEW120 SCT200
FM010800 VRB05KT P6SM SCT200

Example: see airport list